Pagina principale
METAR-TAF:

METAR-TAF

Aeroporti :

Kunming, Cina

latitudine: 25-01N, longitudine: 102-41E, altezza: 1892 m

Osservazione

Il bollettino è stato emesso 31 minuti fa, alle 21:00 UTC
Vento 4 kt da sud/sud-ovest
Temperature 7°C
Umidità 66%
Pressione 1023 hPa
Visibilità 10 km o più
nessuna nube inferiore a 1500 m e nessun cumulonembo

METAR: ZPPP 242100Z 21002MPS CAVOK 07/01 Q1023 NOSIG

Ora: 05:31 (21:31 UTC)

Previsione

Il bollettino è stato emesso 8 ore e 26 minuti fa, alle 13:05 UTC
Previsione valida dal 24 alle 18 UTC al 25 alle 18 UTC
Vento 8 kt da nord-est
Visibilità 10 km o più
Nubi sparse ad un'altezza di 3000 ft
Evoluzione graduale
dal 25 alle 03 UTC al 25 alle 04 UTC
Vento 14 kt da sud-ovest

TAF: ZPPP 241305Z 2418/2518 04004MPS 9999 SCT030 TX20/2508Z TN06/2423Z BECMG 2503/2504 22007MPS

Osservazioni e previsioni meteorologiche di più di 4000 aeroporti (messaggi METAR e TAF).

Le stazioni disponibili sono rappresentate dai dischi gialli e rossi sulla carta.

Puntare il mouse per vedere il nome della stazione.

Clicca sopra per visualizzare le osservazioni e previsioni meteorologiche.

Per cambiare la mappa : fare clic sui pulsanti verdi con una croce nera per ingrandire, il pulsante verde con un trattino per diminuire, o sulla freccia verde per le mappe adiacenti.


METAR-TAF: